sensor_id;sensor_type;location;lat;lon;timestamp;pressure;altitude;pressure_sealevel;temperature;humidity
44044;BME280;29709;52.396;16.796;2022-12-10T00:00:06;100915.87;;;1.84;85.22
44044;BME280;29709;52.396;16.796;2022-12-10T00:03:09;100917.05;;;1.92;85.38
44044;BME280;29709;52.396;16.796;2022-12-10T00:06:15;100914.87;;;2.10;85.34
44044;BME280;29709;52.396;16.796;2022-12-10T00:09:20;100912.04;;;2.12;84.94
44044;BME280;29709;52.396;16.796;2022-12-10T00:12:23;100920.60;;;2.06;84.66
44044;BME280;29709;52.396;16.796;2022-12-10T00:15:54;100920.41;;;2.09;84.85
44044;BME280;29709;52.396;16.796;2022-12-10T00:18:57;100911.84;;;2.02;84.55
44044;BME280;29709;52.396;16.796;2022-12-10T00:22:00;100904.02;;;1.97;84.74
44044;BME280;29709;52.396;16.796;2022-12-10T00:25:03;100912.49;;;1.93;84.71
44044;BME280;29709;52.396;16.796;2022-12-10T00:28:07;100915.20;;;1.93;85.11
44044;BME280;29709;52.396;16.796;2022-12-10T00:31:13;100916.52;;;2.00;85.08
44044;BME280;29709;52.396;16.796;2022-12-10T00:34:16;100918.67;;;1.95;85.37
44044;BME280;29709;52.396;16.796;2022-12-10T00:37:20;100919.66;;;1.94;84.91
44044;BME280;29709;52.396;16.796;2022-12-10T00:40:25;100918.27;;;1.88;85.01
44044;BME280;29709;52.396;16.796;2022-12-10T00:43:59;100917.70;;;1.83;85.36
44044;BME280;29709;52.396;16.796;2022-12-10T00:47:02;100920.30;;;1.85;85.49
44044;BME280;29709;52.396;16.796;2022-12-10T00:50:06;100923.45;;;1.91;85.40
44044;BME280;29709;52.396;16.796;2022-12-10T00:53:11;100923.45;;;1.91;85.29
44044;BME280;29709;52.396;16.796;2022-12-10T00:56:21;100922.24;;;1.95;85.36
44044;BME280;29709;52.396;16.796;2022-12-10T00:59:24;100934.06;;;1.94;84.97
44044;BME280;29709;52.396;16.796;2022-12-10T01:02:27;100923.34;;;1.93;84.96
44044;BME280;29709;52.396;16.796;2022-12-10T01:05:31;100932.10;;;1.96;84.98
44044;BME280;29709;52.396;16.796;2022-12-10T01:09:06;100929.52;;;1.95;85.13
44044;BME280;29709;52.396;16.796;2022-12-10T01:12:10;100918.79;;;1.93;84.92
44044;BME280;29709;52.396;16.796;2022-12-10T01:15:13;100921.16;;;1.98;84.97
44044;BME280;29709;52.396;16.796;2022-12-10T01:18:17;100928.10;;;2.02;84.97
44044;BME280;29709;52.396;16.796;2022-12-10T01:21:23;100925.62;;;1.99;84.76
44044;BME280;29709;52.396;16.796;2022-12-10T01:24:28;100933.30;;;2.05;84.72
44044;BME280;29709;52.396;16.796;2022-12-10T01:27:32;100934.06;;;1.94;84.36
44044;BME280;29709;52.396;16.796;2022-12-10T01:30:37;100937.75;;;1.93;84.69
44044;BME280;29709;52.396;16.796;2022-12-10T01:34:13;100936.66;;;1.96;84.81
44044;BME280;29709;52.396;16.796;2022-12-10T01:37:16;100933.31;;;1.92;84.42
44044;BME280;29709;52.396;16.796;2022-12-10T01:40:19;100938.30;;;1.86;84.48
44044;BME280;29709;52.396;16.796;2022-12-10T01:43:23;100932.98;;;1.84;84.86
44044;BME280;29709;52.396;16.796;2022-12-10T01:46:33;100931.82;;;1.88;84.91
44044;BME280;29709;52.396;16.796;2022-12-10T01:49:39;100930.72;;;1.91;84.80
44044;BME280;29709;52.396;16.796;2022-12-10T01:52:42;100931.70;;;1.90;84.58
44044;BME280;29709;52.396;16.796;2022-12-10T01:55:48;100929.10;;;1.88;84.74
44044;BME280;29709;52.396;16.796;2022-12-10T01:59:18;100929.20;;;1.99;84.87
44044;BME280;29709;52.396;16.796;2022-12-10T02:02:29;100922.68;;;2.02;84.32
44044;BME280;29709;52.396;16.796;2022-12-10T02:05:44;100927.35;;;2.00;84.19
44044;BME280;29709;52.396;16.796;2022-12-10T02:12:11;100914.33;;;2.05;84.13
44044;BME280;29709;52.396;16.796;2022-12-10T02:15:50;100923.77;;;1.99;84.10
44044;BME280;29709;52.396;16.796;2022-12-10T02:22:11;100915.73;;;1.98;83.75
44044;BME280;29709;52.396;16.796;2022-12-10T02:25:18;100920.52;;;1.94;83.77
44044;BME280;29709;52.396;16.796;2022-12-10T02:28:32;100919.34;;;1.98;83.85
44044;BME280;29709;52.396;16.796;2022-12-10T02:32:06;100928.23;;;1.88;83.58
44044;BME280;29709;52.396;16.796;2022-12-10T02:35:16;100925.95;;;1.82;83.90
44044;BME280;29709;52.396;16.796;2022-12-10T02:38:28;100915.22;;;1.80;83.83
44044;BME280;29709;52.396;16.796;2022-12-10T02:41:36;100921.92;;;1.87;84.02
44044;BME280;29709;52.396;16.796;2022-12-10T02:44:42;100921.72;;;1.90;83.60
44044;BME280;29709;52.396;16.796;2022-12-10T02:47:46;100916.82;;;1.95;83.66
44044;BME280;29709;52.396;16.796;2022-12-10T02:51:15;100916.52;;;2.00;83.46
44044;BME280;29709;52.396;16.796;2022-12-10T03:14:22;100923.77;;;1.99;82.63
44044;BME280;29709;52.396;16.796;2022-12-10T03:17:29;100924.43;;;1.90;82.04
44044;BME280;29709;52.396;16.796;2022-12-10T03:20:36;100923.02;;;1.85;82.41
44044;BME280;29709;52.396;16.796;2022-12-10T03:23:43;100922.89;;;1.86;82.64
44044;BME280;29709;52.396;16.796;2022-12-10T03:26:48;100935.27;;;1.90;82.32
44044;BME280;29709;52.396;16.796;2022-12-10T03:29:55;100941.67;;;1.89;82.45
44044;BME280;29709;52.396;16.796;2022-12-10T03:32:59;100933.55;;;1.89;82.13
44044;BME280;29709;52.396;16.796;2022-12-10T03:36:28;100938.97;;;1.89;82.32
44044;BME280;29709;52.396;16.796;2022-12-10T03:39:32;100941.67;;;1.89;82.38
44044;BME280;29709;52.396;16.796;2022-12-10T03:42:36;100946.00;;;1.92;82.37
44044;BME280;29709;52.396;16.796;2022-12-10T03:45:40;100946.21;;;2.01;82.43
44044;BME280;29709;52.396;16.796;2022-12-10T03:48:43;100956.18;;;2.14;82.30
44044;BME280;29709;52.396;16.796;2022-12-10T03:51:46;100951.81;;;2.24;82.05
44044;BME280;29709;52.396;16.796;2022-12-10T03:54:49;100965.02;;;2.28;81.62
44044;BME280;29709;52.396;16.796;2022-12-10T03:57:52;100966.67;;;2.31;81.34
44044;BME280;29709;52.396;16.796;2022-12-10T04:00:55;100957.12;;;2.25;80.45
44044;BME280;29709;52.396;16.796;2022-12-10T04:03:58;100966.24;;;2.24;81.00
44044;BME280;29709;52.396;16.796;2022-12-10T04:07:28;100963.77;;;2.09;79.31
44044;BME280;29709;52.396;16.796;2022-12-10T04:10:35;100955.98;;;1.91;78.64
44044;BME280;29709;52.396;16.796;2022-12-10T04:13:38;100946.66;;;1.83;78.87
44044;BME280;29709;52.396;16.796;2022-12-10T04:16:53;100951.20;;;1.82;78.99
44044;BME280;29709;52.396;16.796;2022-12-10T04:19:56;100952.41;;;1.78;78.22
44044;BME280;29709;52.396;16.796;2022-12-10T04:22:59;100950.12;;;1.72;78.44
44044;BME280;29709;52.396;16.796;2022-12-10T04:26:40;100949.79;;;1.77;78.65
44044;BME280;29709;52.396;16.796;2022-12-10T04:29:56;100956.41;;;1.72;78.43
44044;BME280;29709;52.396;16.796;2022-12-10T04:32:59;100953.16;;;1.80;78.56
44044;BME280;29709;52.396;16.796;2022-12-10T04:36:02;100952.70;;;1.86;78.48
44044;BME280;29709;52.396;16.796;2022-12-10T04:39:05;100955.34;;;1.88;78.09
44044;BME280;29709;52.396;16.796;2022-12-10T04:42:08;100954.36;;;1.89;78.48
44044;BME280;29709;52.396;16.796;2022-12-10T04:45:11;100957.38;;;1.84;78.02
44044;BME280;29709;52.396;16.796;2022-12-10T04:48:14;100958.46;;;1.94;78.39
44044;BME280;29709;52.396;16.796;2022-12-10T04:51:45;100962.36;;;2.03;78.00
44044;BME280;29709;52.396;16.796;2022-12-10T04:54:48;100965.39;;;2.11;77.88
44044;BME280;29709;52.396;16.796;2022-12-10T04:57:51;100961.06;;;2.09;77.57
44044;BME280;29709;52.396;16.796;2022-12-10T05:01:03;100964.94;;;2.17;77.66
44044;BME280;29709;52.396;16.796;2022-12-10T05:04:09;100963.63;;;2.23;78.12
44044;BME280;29709;52.396;16.796;2022-12-10T05:07:12;100960.06;;;2.22;77.24
44044;BME280;29709;52.396;16.796;2022-12-10T05:10:15;100959.60;;;2.28;78.05
44044;BME280;29709;52.396;16.796;2022-12-10T05:13:18;100962.66;;;2.24;77.77
44044;BME280;29709;52.396;16.796;2022-12-10T05:16:22;100950.84;;;2.25;77.69
44044;BME280;29709;52.396;16.796;2022-12-10T05:19:51;100960.84;;;2.12;76.89
44044;BME280;29709;52.396;16.796;2022-12-10T05:22:53;100967.45;;;2.20;77.02
44044;BME280;29709;52.396;16.796;2022-12-10T05:26:15;100970.16;;;2.20;77.15
44044;BME280;29709;52.396;16.796;2022-12-10T05:29:19;100977.63;;;2.17;77.25
44044;BME280;29709;52.396;16.796;2022-12-10T05:32:21;100971.34;;;2.16;77.62
44044;BME280;29709;52.396;16.796;2022-12-10T05:35:24;100976.77;;;2.16;77.32
44044;BME280;29709;52.396;16.796;2022-12-10T05:38:29;100968.75;;;2.15;77.07
44044;BME280;29709;52.396;16.796;2022-12-10T05:41:58;100977.64;;;2.04;77.26
44044;BME280;29709;52.396;16.796;2022-12-10T05:45:01;100976.66;;;2.05;76.86
44044;BME280;29709;52.396;16.796;2022-12-10T05:48:05;100977.77;;;2.02;76.90
44044;BME280;29709;52.396;16.796;2022-12-10T05:51:11;100981.12;;;2.06;77.16
44044;BME280;29709;52.396;16.796;2022-12-10T05:54:14;100980.25;;;2.06;76.80
44044;BME280;29709;52.396;16.796;2022-12-10T05:57:17;100974.93;;;2.04;77.13
44044;BME280;29709;52.396;16.796;2022-12-10T06:00:20;100981.12;;;2.06;77.18
44044;BME280;29709;52.396;16.796;2022-12-10T06:03:29;100981.67;;;2.11;77.31
44044;BME280;29709;52.396;16.796;2022-12-10T06:06:35;100980.69;;;2.12;77.17
44044;BME280;29709;52.396;16.796;2022-12-10T06:10:04;100976.45;;;1.95;76.75
44044;BME280;29709;52.396;16.796;2022-12-10T06:13:07;100979.62;;;1.89;77.18
44044;BME280;29709;52.396;16.796;2022-12-10T06:16:12;100974.61;;;1.96;77.49
44044;BME280;29709;52.396;16.796;2022-12-10T06:19:15;100988.72;;;2.01;77.37
44044;BME280;29709;52.396;16.796;2022-12-10T06:22:18;100976.26;;;1.98;77.41
44044;BME280;29709;52.396;16.796;2022-12-10T06:25:21;100978.98;;;1.98;76.98
44044;BME280;29709;52.396;16.796;2022-12-10T06:28:27;100984.40;;;1.98;77.28
44044;BME280;29709;52.396;16.796;2022-12-10T06:31:30;100981.01;;;1.95;77.33
44044;BME280;29709;52.396;16.796;2022-12-10T06:34:33;100975.59;;;1.95;77.46
44044;BME280;29709;52.396;16.796;2022-12-10T06:37:36;100979.51;;;1.91;77.12
44044;BME280;29709;52.396;16.796;2022-12-10T06:41:09;100976.69;;;1.92;77.57
44044;BME280;29709;52.396;16.796;2022-12-10T06:44:12;100978.08;;;1.85;77.58
44044;BME280;29709;52.396;16.796;2022-12-10T06:47:16;100973.53;;;1.86;77.81
44044;BME280;29709;52.396;16.796;2022-12-10T06:50:19;100983.38;;;1.87;77.89
44044;BME280;29709;52.396;16.796;2022-12-10T06:53:21;100979.92;;;1.85;77.58
44044;BME280;29709;52.396;16.796;2022-12-10T06:56:25;100976.24;;;1.86;77.54
44044;BME280;29709;52.396;16.796;2022-12-10T06:59:28;100986.02;;;1.88;77.77
44044;BME280;29709;52.396;16.796;2022-12-10T07:02:31;100990.23;;;1.92;77.99
44044;BME280;29709;52.396;16.796;2022-12-10T07:05:34;100994.26;;;1.99;77.91
44044;BME280;29709;52.396;16.796;2022-12-10T07:08:37;100995.33;;;2.10;77.85
44044;BME280;29709;52.396;16.796;2022-12-10T07:12:05;100990.11;;;2.07;77.78
44044;BME280;29709;52.396;16.796;2022-12-10T07:15:09;100983.95;;;2.05;77.88
44044;BME280;29709;52.396;16.796;2022-12-10T07:18:12;100991.20;;;2.04;77.75
44044;BME280;29709;52.396;16.796;2022-12-10T07:21:16;100982.44;;;2.00;77.81
44044;BME280;29709;52.396;16.796;2022-12-10T07:24:20;100966.17;;;1.88;77.91
44044;BME280;29709;52.396;16.796;2022-12-10T07:27:23;100979.84;;;1.99;77.93
44044;BME280;29709;52.396;16.796;2022-12-10T07:30:25;100984.28;;;2.00;78.31
44044;BME280;29709;52.396;16.796;2022-12-10T07:33:28;100982.76;;;2.09;78.45
44044;BME280;29709;52.396;16.796;2022-12-10T07:36:31;100984.48;;;1.97;78.28
44044;BME280;29709;52.396;16.796;2022-12-10T07:39:34;100986.65;;;1.92;79.04
44044;BME280;29709;52.396;16.796;2022-12-10T07:43:05;100997.16;;;1.96;79.11
44044;BME280;29709;52.396;16.796;2022-12-10T07:46:18;100986.88;;;2.01;78.95
44044;BME280;29709;52.396;16.796;2022-12-10T07:49:21;100984.05;;;1.90;79.13
44044;BME280;29709;52.396;16.796;2022-12-10T07:52:24;100981.88;;;1.83;79.30
44044;BME280;29709;52.396;16.796;2022-12-10T07:55:27;100987.65;;;1.78;79.50
44044;BME280;29709;52.396;16.796;2022-12-10T07:58:31;100998.56;;;1.77;79.66
44044;BME280;29709;52.396;16.796;2022-12-10T08:01:34;100995.44;;;1.83;79.91
44044;BME280;29709;52.396;16.796;2022-12-10T08:04:37;100995.88;;;1.89;79.59
44044;BME280;29709;52.396;16.796;2022-12-10T08:07:40;100993.82;;;1.80;79.16
44044;BME280;29709;52.396;16.796;2022-12-10T08:11:10;101009.95;;;1.82;79.82
44044;BME280;29709;52.396;16.796;2022-12-10T08:14:13;101007.02;;;1.85;79.59
44044;BME280;29709;52.396;16.796;2022-12-10T08:17:16;101006.27;;;1.83;79.47
44044;BME280;29709;52.396;16.796;2022-12-10T08:20:19;101014.85;;;1.89;79.26
44044;BME280;29709;52.396;16.796;2022-12-10T08:23:22;101009.55;;;1.88;78.91
44044;BME280;29709;52.396;16.796;2022-12-10T08:26:27;101009.55;;;1.88;79.09
44044;BME280;29709;52.396;16.796;2022-12-10T08:29:30;101009.09;;;1.81;78.81
44044;BME280;29709;52.396;16.796;2022-12-10T08:32:33;101006.61;;;1.78;79.21
44044;BME280;29709;52.396;16.796;2022-12-10T08:35:36;101003.78;;;1.80;79.41
44044;BME280;29709;52.396;16.796;2022-12-10T08:38:39;101008.01;;;1.84;79.50
44044;BME280;29709;52.396;16.796;2022-12-10T08:42:09;101017.98;;;1.83;79.49
44044;BME280;29709;52.396;16.796;2022-12-10T08:45:12;101014.73;;;1.91;79.39
44044;BME280;29709;52.396;16.796;2022-12-10T08:48:15;101012.34;;;1.86;79.13
44044;BME280;29709;52.396;16.796;2022-12-10T08:51:18;101020.16;;;1.91;79.03
44044;BME280;29709;52.396;16.796;2022-12-10T08:54:21;101023.09;;;1.88;78.96
44044;BME280;29709;52.396;16.796;2022-12-10T08:57:24;101030.33;;;1.87;79.12
44044;BME280;29709;52.396;16.796;2022-12-10T09:00:27;101031.76;;;1.80;79.33
44044;BME280;29709;52.396;16.796;2022-12-10T09:03:30;101023.62;;;1.80;79.58
44044;BME280;29709;52.396;16.796;2022-12-10T09:06:33;101031.76;;;1.93;79.35
44044;BME280;29709;52.396;16.796;2022-12-10T09:09:36;101030.89;;;1.92;78.99
44044;BME280;29709;52.396;16.796;2022-12-10T09:12:40;101041.17;;;1.87;78.96
44044;BME280;29709;52.396;16.796;2022-12-10T09:16:09;101041.17;;;1.87;78.49
44044;BME280;29709;52.396;16.796;2022-12-10T09:19:12;101040.00;;;1.91;78.53
44044;BME280;29709;52.396;16.796;2022-12-10T09:22:15;101038.27;;;1.90;78.18
44044;BME280;29709;52.396;16.796;2022-12-10T09:25:18;101027.09;;;1.95;78.51
44044;BME280;29709;52.396;16.796;2022-12-10T09:28:24;101027.77;;;1.98;78.22
44044;BME280;29709;52.396;16.796;2022-12-10T09:31:27;101016.58;;;2.03;78.17
44044;BME280;29709;52.396;16.796;2022-12-10T09:34:30;101010.52;;;1.99;77.51
44044;BME280;29709;52.396;16.796;2022-12-10T09:37:33;101013.98;;;2.01;77.31
44044;BME280;29709;52.396;16.796;2022-12-10T09:47:40;101006.83;;;2.00;76.98
44044;BME280;29709;52.396;16.796;2022-12-10T09:50:53;101003.03;;;2.03;76.88
44044;BME280;29709;52.396;16.796;2022-12-10T09:53:59;101003.36;;;2.11;76.80
44044;BME280;29709;52.396;16.796;2022-12-10T09:57:04;101007.80;;;2.12;75.94
44044;BME280;29709;52.396;16.796;2022-12-10T10:00:39;101006.94;;;2.12;76.48
44044;BME280;29709;52.396;16.796;2022-12-10T10:03:44;101001.91;;;2.18;76.12
44044;BME280;29709;52.396;16.796;2022-12-10T10:06:47;100998.57;;;2.15;75.64
44044;BME280;29709;52.396;16.796;2022-12-10T10:09:53;101002.60;;;2.09;75.59
44044;BME280;29709;52.396;16.796;2022-12-10T10:13:13;100998.80;;;2.12;75.09
44044;BME280;29709;52.396;16.796;2022-12-10T10:19:52;101013.65;;;1.93;75.00
44044;BME280;29709;52.396;16.796;2022-12-10T10:22:57;101009.44;;;1.89;75.27
44044;BME280;29709;52.396;16.796;2022-12-10T10:26:02;101008.67;;;2.00;75.80
44044;BME280;29709;52.396;16.796;2022-12-10T10:29:08;101013.22;;;2.12;75.31
44044;BME280;29709;52.396;16.796;2022-12-10T10:32:23;101006.83;;;2.00;74.46
44044;BME280;29709;52.396;16.796;2022-12-10T10:35:29;101009.66;;;1.99;74.71
44044;BME280;29709;52.396;16.796;2022-12-10T10:38:33;101003.78;;;2.05;75.23
44044;BME280;29709;52.396;16.796;2022-12-10T10:42:07;101008.77;;;2.11;75.10
44044;BME280;29709;52.396;16.796;2022-12-10T10:48:28;100993.37;;;2.12;74.19
44044;BME280;29709;52.396;16.796;2022-12-10T10:51:37;100993.69;;;2.07;74.43
44044;BME280;29709;52.396;16.796;2022-12-10T10:54:45;100987.84;;;2.13;74.36
44044;BME280;29709;52.396;16.796;2022-12-10T10:58:20;100993.71;;;2.20;74.56
44044;BME280;29709;52.396;16.796;2022-12-10T11:01:25;100983.92;;;2.30;74.26
44044;BME280;29709;52.396;16.796;2022-12-10T11:04:36;100985.45;;;2.21;73.77
44044;BME280;29709;52.396;16.796;2022-12-10T11:07:39;100990.32;;;2.16;73.41
44044;BME280;29709;52.396;16.796;2022-12-10T11:10:51;100991.64;;;2.11;73.78
44044;BME280;29709;52.396;16.796;2022-12-10T11:17:35;100990.23;;;1.92;73.94
44044;BME280;29709;52.396;16.796;2022-12-10T11:23:57;100987.64;;;1.91;74.34
44044;BME280;29709;52.396;16.796;2022-12-10T11:27:06;100984.25;;;1.87;74.72
44044;BME280;29709;52.396;16.796;2022-12-10T11:30:14;100981.13;;;1.81;74.62
44044;BME280;29709;52.396;16.796;2022-12-10T11:33:39;100976.58;;;1.81;74.51
44044;BME280;29709;52.396;16.796;2022-12-10T11:49:44;100975.48;;;1.84;75.20
44044;BME280;29709;52.396;16.796;2022-12-10T11:52:58;100973.34;;;1.89;74.98
44044;BME280;29709;52.396;16.796;2022-12-10T11:56:18;100969.94;;;1.98;75.03
44044;BME280;29709;52.396;16.796;2022-12-10T11:59:34;100974.19;;;2.02;73.97
44044;BME280;29709;52.396;16.796;2022-12-10T12:06:25;100972.48;;;1.88;74.47
44044;BME280;29709;52.396;16.796;2022-12-10T12:19:10;100974.96;;;1.79;75.08
44044;BME280;29709;52.396;16.796;2022-12-10T12:25:32;100978.30;;;1.95;75.00
44044;BME280;29709;52.396;16.796;2022-12-10T12:28:42;100983.72;;;1.95;74.89
44044;BME280;29709;52.396;16.796;2022-12-10T12:35:09;100995.01;;;2.01;74.57
44044;BME280;29709;52.396;16.796;2022-12-10T12:41:37;100995.42;;;1.95;74.25
44044;BME280;29709;52.396;16.796;2022-12-10T12:48:09;100991.21;;;1.91;74.53
44044;BME280;29709;52.396;16.796;2022-12-10T12:51:27;100991.85;;;1.95;74.69
44044;BME280;29709;52.396;16.796;2022-12-10T12:54:29;100985.05;;;1.89;74.57
44044;BME280;29709;52.396;16.796;2022-12-10T13:01:22;100995.55;;;1.81;74.62
44044;BME280;29709;52.396;16.796;2022-12-10T13:04:28;100985.01;;;1.77;74.50
44044;BME280;29709;52.396;16.796;2022-12-10T13:07:35;100987.72;;;1.77;74.62
44044;BME280;29709;52.396;16.796;2022-12-10T13:23:48;100993.14;;;1.77;74.95
44044;BME280;29709;52.396;16.796;2022-12-10T13:27:03;100998.25;;;1.81;75.17
44044;BME280;29709;52.396;16.796;2022-12-10T13:33:20;101008.56;;;1.89;74.77
44044;BME280;29709;52.396;16.796;2022-12-10T13:46:51;101017.23;;;1.81;74.44
44044;BME280;29709;52.396;16.796;2022-12-10T13:50:02;101017.64;;;1.75;74.41
44044;BME280;29709;52.396;16.796;2022-12-10T13:53:18;101015.38;;;1.69;74.97
44044;BME280;29709;52.396;16.796;2022-12-10T13:56:28;101022.75;;;1.67;75.06
44044;BME280;29709;52.396;16.796;2022-12-10T14:06:12;101027.27;;;1.66;75.29
44044;BME280;29709;52.396;16.796;2022-12-10T14:12:40;101029.66;;;1.58;75.56
44044;BME280;29709;52.396;16.796;2022-12-10T14:15:53;101022.51;;;1.57;75.38
44044;BME280;29709;52.396;16.796;2022-12-10T14:19:04;101025.12;;;1.59;75.83
44044;BME280;29709;52.396;16.796;2022-12-10T14:22:14;101020.45;;;1.61;75.60
44044;BME280;29709;52.396;16.796;2022-12-10T14:25:22;101024.44;;;1.55;75.41
44044;BME280;29709;52.396;16.796;2022-12-10T14:28:25;101029.20;;;1.52;75.79
44044;BME280;29709;52.396;16.796;2022-12-10T14:31:53;101038.52;;;1.48;75.85
44044;BME280;29709;52.396;16.796;2022-12-10T14:34:57;101030.40;;;1.48;75.75
44044;BME280;29709;52.396;16.796;2022-12-10T14:38:01;101036.98;;;1.43;75.76
44044;BME280;29709;52.396;16.796;2022-12-10T14:41:04;101031.56;;;1.43;75.65
44044;BME280;29709;52.396;16.796;2022-12-10T14:44:14;101027.55;;;1.36;75.75
44044;BME280;29709;52.396;16.796;2022-12-10T14:47:19;101023.76;;;1.39;75.73
44044;BME280;29709;52.396;16.796;2022-12-10T14:50:22;101024.73;;;1.38;75.77
44044;BME280;29709;52.396;16.796;2022-12-10T14:53:26;101030.34;;;1.35;75.82
44044;BME280;29709;52.396;16.796;2022-12-10T14:56:32;101032.19;;;1.34;76.02
44044;BME280;29709;52.396;16.796;2022-12-10T15:00:33;101034.88;;;1.34;76.01
44044;BME280;29709;52.396;16.796;2022-12-10T15:03:43;101026.14;;;1.43;76.22
44044;BME280;29709;52.396;16.796;2022-12-10T15:06:48;101030.58;;;1.44;75.77
44044;BME280;29709;52.396;16.796;2022-12-10T15:09:53;101027.34;;;1.39;75.92
44044;BME280;29709;52.396;16.796;2022-12-10T15:12:57;101031.52;;;1.31;75.77
44044;BME280;29709;52.396;16.796;2022-12-10T15:16:00;101034.56;;;1.26;75.73
44044;BME280;29709;52.396;16.796;2022-12-10T15:22:21;101047.63;;;1.20;76.21
44044;BME280;29709;52.396;16.796;2022-12-10T15:25:27;101043.18;;;1.19;75.46
44044;BME280;29709;52.396;16.796;2022-12-10T15:28:39;101048.81;;;1.15;75.14
44044;BME280;29709;52.396;16.796;2022-12-10T15:31:42;101051.70;;;1.12;74.75
44044;BME280;29709;52.396;16.796;2022-12-10T15:35:12;101055.81;;;1.05;75.20
44044;BME280;29709;52.396;16.796;2022-12-10T15:38:17;101069.02;;;1.10;74.79
44044;BME280;29709;52.396;16.796;2022-12-10T15:44:40;101068.42;;;1.19;74.97
44044;BME280;29709;52.396;16.796;2022-12-10T15:47:45;101062.61;;;1.25;74.65
44044;BME280;29709;52.396;16.796;2022-12-10T15:50:48;101065.98;;;1.29;73.94
44044;BME280;29709;52.396;16.796;2022-12-10T15:53:52;101075.72;;;1.31;73.98
44044;BME280;29709;52.396;16.796;2022-12-10T15:57:27;101072.25;;;1.29;73.64
44044;BME280;29709;52.396;16.796;2022-12-10T16:00:31;101066.51;;;1.34;73.90
44044;BME280;29709;52.396;16.796;2022-12-10T16:03:34;101074.23;;;1.40;73.80
44044;BME280;29709;52.396;16.796;2022-12-10T16:06:43;101073.48;;;1.38;73.59
44044;BME280;29709;52.396;16.796;2022-12-10T16:09:46;101081.02;;;1.33;72.59
44044;BME280;29709;52.396;16.796;2022-12-10T16:16:08;101084.49;;;1.35;72.46
44044;BME280;29709;52.396;16.796;2022-12-10T16:19:13;101094.27;;;1.37;71.80
44044;BME280;29709;52.396;16.796;2022-12-10T16:22:17;101084.31;;;1.38;72.29
44044;BME280;29709;52.396;16.796;2022-12-10T16:25:46;101095.44;;;1.33;71.43
44044;BME280;29709;52.396;16.796;2022-12-10T16:28:50;101088.07;;;1.35;70.91
44044;BME280;29709;52.396;16.796;2022-12-10T16:31:54;101087.31;;;1.33;70.77
44044;BME280;29709;52.396;16.796;2022-12-10T16:34:57;101091.58;;;1.37;70.92
44044;BME280;29709;52.396;16.796;2022-12-10T16:38:00;101093.84;;;1.43;71.34
44044;BME280;29709;52.396;16.796;2022-12-10T16:41:14;101100.12;;;1.44;70.54
44044;BME280;29709;52.396;16.796;2022-12-10T16:44:18;101100.09;;;1.31;69.77
44044;BME280;29709;52.396;16.796;2022-12-10T16:47:21;101102.30;;;1.39;70.58
44044;BME280;29709;52.396;16.796;2022-12-10T16:50:52;101103.45;;;1.35;70.48
44044;BME280;29709;52.396;16.796;2022-12-10T16:54:00;101091.75;;;1.34;70.15
44044;BME280;29709;52.396;16.796;2022-12-10T16:57:08;101093.48;;;1.35;70.25
44044;BME280;29709;52.396;16.796;2022-12-10T17:00:18;101096.66;;;1.42;70.46
44044;BME280;29709;52.396;16.796;2022-12-10T17:03:24;101089.73;;;1.38;69.96
44044;BME280;29709;52.396;16.796;2022-12-10T17:06:30;101098.46;;;1.29;70.18
44044;BME280;29709;52.396;16.796;2022-12-10T17:09:33;101098.96;;;1.21;70.42
44044;BME280;29709;52.396;16.796;2022-12-10T17:13:03;101098.48;;;1.14;71.03
44044;BME280;29709;52.396;16.796;2022-12-10T17:16:21;101096.20;;;1.08;71.22
44044;BME280;29709;52.396;16.796;2022-12-10T17:19:20;101100.32;;;1.14;71.71
44044;BME280;29709;52.396;16.796;2022-12-10T17:22:23;101097.73;;;1.12;71.86
44044;BME280;29709;52.396;16.796;2022-12-10T17:25:26;101100.43;;;1.12;72.00
44044;BME280;29709;52.396;16.796;2022-12-10T17:28:30;101096.67;;;1.15;72.00
44044;BME280;29709;52.396;16.796;2022-12-10T17:31:33;101093.98;;;1.15;72.16
44044;BME280;29709;52.396;16.796;2022-12-10T17:34:37;101089.92;;;1.08;71.96
44044;BME280;29709;52.396;16.796;2022-12-10T17:38:17;101088.78;;;0.98;72.62
44044;BME280;29709;52.396;16.796;2022-12-10T17:41:21;101084.83;;;0.89;73.10
44044;BME280;29709;52.396;16.796;2022-12-10T17:44:24;101074.77;;;0.91;73.17
44044;BME280;29709;52.396;16.796;2022-12-10T17:47:27;101081.81;;;0.94;73.75
44044;BME280;29709;52.396;16.796;2022-12-10T17:50:33;101085.97;;;0.99;73.68
44044;BME280;29709;52.396;16.796;2022-12-10T17:53:37;101079.79;;;0.97;73.98
44044;BME280;29709;52.396;16.796;2022-12-10T17:56:41;101084.13;;;1.00;73.97
44044;BME280;29709;52.396;16.796;2022-12-10T17:59:44;101078.55;;;0.89;73.86
44044;BME280;29709;52.396;16.796;2022-12-10T18:03:13;101084.55;;;0.79;74.44
44044;BME280;29709;52.396;16.796;2022-12-10T18:06:23;101081.75;;;0.81;74.56
44044;BME280;29709;52.396;16.796;2022-12-10T18:09:29;101084.66;;;0.78;74.65
44044;BME280;29709;52.396;16.796;2022-12-10T18:12:33;101095.00;;;0.85;74.87
44044;BME280;29709;52.396;16.796;2022-12-10T18:15:36;101087.05;;;0.97;74.98
44044;BME280;29709;52.396;16.796;2022-12-10T18:18:40;101085.97;;;0.99;74.90
44044;BME280;29709;52.396;16.796;2022-12-10T18:21:43;101091.77;;;0.93;74.88
44044;BME280;29709;52.396;16.796;2022-12-10T18:24:46;101094.79;;;0.89;74.76
44044;BME280;29709;52.396;16.796;2022-12-10T18:27:51;101095.09;;;0.84;75.00
44044;BME280;29709;52.396;16.796;2022-12-10T18:31:23;101094.23;;;0.83;75.35
44044;BME280;29709;52.396;16.796;2022-12-10T18:34:26;101095.27;;;0.81;74.94
44044;BME280;29709;52.396;16.796;2022-12-10T18:37:29;101099.36;;;0.74;75.00
44044;BME280;29709;52.396;16.796;2022-12-10T18:40:32;101088.99;;;0.80;75.23